sensor_id;sensor_type;location;lat;lon;timestamp;P1;durP1;ratioP1;P2;durP2;ratioP2
76171;SDS011;64929;51.178;4.138;2023-09-07T00:00:47;6.60;;;4.65;;
76171;SDS011;64929;51.178;4.138;2023-09-07T00:03:15;7.10;;;5.05;;
76171;SDS011;64929;51.178;4.138;2023-09-07T00:05:41;5.25;;;4.43;;
76171;SDS011;64929;51.178;4.138;2023-09-07T00:08:08;5.97;;;4.25;;
76171;SDS011;64929;51.178;4.138;2023-09-07T00:10:33;7.32;;;4.32;;
76171;SDS011;64929;51.178;4.138;2023-09-07T00:13:03;7.15;;;4.47;;
76171;SDS011;64929;51.178;4.138;2023-09-07T00:15:29;11.50;;;4.15;;
76171;SDS011;64929;51.178;4.138;2023-09-07T00:18:00;8.27;;;4.70;;
76171;SDS011;64929;51.178;4.138;2023-09-07T00:20:25;7.75;;;4.53;;
76171;SDS011;64929;51.178;4.138;2023-09-07T00:22:52;6.85;;;4.50;;
76171;SDS011;64929;51.178;4.138;2023-09-07T00:25:17;8.93;;;4.20;;
76171;SDS011;64929;51.178;4.138;2023-09-07T00:27:43;7.93;;;4.28;;
76171;SDS011;64929;51.178;4.138;2023-09-07T00:30:10;5.85;;;4.13;;
76171;SDS011;64929;51.178;4.138;2023-09-07T00:32:36;6.22;;;4.25;;
76171;SDS011;64929;51.178;4.138;2023-09-07T00:35:03;6.57;;;4.20;;
76171;SDS011;64929;51.178;4.138;2023-09-07T00:37:29;5.68;;;4.30;;
76171;SDS011;64929;51.178;4.138;2023-09-07T00:39:55;7.13;;;4.40;;
76171;SDS011;64929;51.178;4.138;2023-09-07T00:42:21;6.30;;;4.63;;
76171;SDS011;64929;51.178;4.138;2023-09-07T00:44:46;5.68;;;4.03;;
76171;SDS011;64929;51.178;4.138;2023-09-07T00:47:13;6.78;;;4.65;;
76171;SDS011;64929;51.178;4.138;2023-09-07T00:49:40;8.60;;;4.60;;
76171;SDS011;64929;51.178;4.138;2023-09-07T00:52:06;5.90;;;4.47;;
76171;SDS011;64929;51.178;4.138;2023-09-07T00:54:33;5.88;;;4.28;;
76171;SDS011;64929;51.178;4.138;2023-09-07T00:57:00;5.45;;;4.25;;
76171;SDS011;64929;51.178;4.138;2023-09-07T00:59:26;7.93;;;5.32;;
76171;SDS011;64929;51.178;4.138;2023-09-07T01:01:53;6.75;;;4.70;;
76171;SDS011;64929;51.178;4.138;2023-09-07T01:04:19;5.30;;;4.65;;
76171;SDS011;64929;51.178;4.138;2023-09-07T01:06:47;7.00;;;4.90;;
76171;SDS011;64929;51.178;4.138;2023-09-07T01:09:23;6.40;;;4.60;;
76171;SDS011;64929;51.178;4.138;2023-09-07T01:11:51;7.43;;;5.00;;
76171;SDS011;64929;51.178;4.138;2023-09-07T01:14:18;5.47;;;4.72;;
76171;SDS011;64929;51.178;4.138;2023-09-07T01:16:43;8.38;;;5.13;;
76171;SDS011;64929;51.178;4.138;2023-09-07T01:19:09;6.85;;;4.90;;
76171;SDS011;64929;51.178;4.138;2023-09-07T01:21:37;7.57;;;5.45;;
76171;SDS011;64929;51.178;4.138;2023-09-07T01:24:07;9.00;;;4.93;;
76171;SDS011;64929;51.178;4.138;2023-09-07T01:26:35;8.82;;;5.45;;
76171;SDS011;64929;51.178;4.138;2023-09-07T01:29:05;7.18;;;5.47;;
76171;SDS011;64929;51.178;4.138;2023-09-07T01:31:35;7.55;;;5.13;;
76171;SDS011;64929;51.178;4.138;2023-09-07T01:36:27;7.05;;;5.15;;
76171;SDS011;64929;51.178;4.138;2023-09-07T01:38:54;7.43;;;5.43;;
76171;SDS011;64929;51.178;4.138;2023-09-07T01:41:20;7.78;;;5.00;;
76171;SDS011;64929;51.178;4.138;2023-09-07T01:43:46;7.55;;;5.25;;
76171;SDS011;64929;51.178;4.138;2023-09-07T01:46:12;7.32;;;5.35;;
76171;SDS011;64929;51.178;4.138;2023-09-07T01:48:38;10.48;;;5.43;;
76171;SDS011;64929;51.178;4.138;2023-09-07T01:51:04;7.15;;;5.03;;
76171;SDS011;64929;51.178;4.138;2023-09-07T01:53:30;7.40;;;5.50;;
76171;SDS011;64929;51.178;4.138;2023-09-07T01:55:56;7.07;;;5.60;;
76171;SDS011;64929;51.178;4.138;2023-09-07T01:58:24;8.38;;;5.72;;
76171;SDS011;64929;51.178;4.138;2023-09-07T02:00:52;7.60;;;5.20;;
76171;SDS011;64929;51.178;4.138;2023-09-07T02:03:22;8.23;;;5.60;;
76171;SDS011;64929;51.178;4.138;2023-09-07T02:05:48;14.70;;;5.63;;
76171;SDS011;64929;51.178;4.138;2023-09-07T02:08:14;7.63;;;5.57;;
76171;SDS011;64929;51.178;4.138;2023-09-07T02:10:40;8.68;;;5.28;;
76171;SDS011;64929;51.178;4.138;2023-09-07T02:13:06;7.78;;;5.68;;
76171;SDS011;64929;51.178;4.138;2023-09-07T02:15:32;6.30;;;4.95;;
76171;SDS011;64929;51.178;4.138;2023-09-07T02:17:58;10.27;;;5.25;;
76171;SDS011;64929;51.178;4.138;2023-09-07T02:20:25;7.65;;;5.20;;
76171;SDS011;64929;51.178;4.138;2023-09-07T02:22:51;7.95;;;5.20;;
76171;SDS011;64929;51.178;4.138;2023-09-07T02:25:16;11.90;;;6.13;;
76171;SDS011;64929;51.178;4.138;2023-09-07T02:27:42;8.68;;;4.85;;
76171;SDS011;64929;51.178;4.138;2023-09-07T02:30:09;6.38;;;5.00;;
76171;SDS011;64929;51.178;4.138;2023-09-07T02:32:35;7.95;;;5.63;;
76171;SDS011;64929;51.178;4.138;2023-09-07T02:35:01;8.38;;;5.43;;
76171;SDS011;64929;51.178;4.138;2023-09-07T02:37:27;7.70;;;5.22;;
76171;SDS011;64929;51.178;4.138;2023-09-07T02:39:53;11.15;;;5.88;;
76171;SDS011;64929;51.178;4.138;2023-09-07T02:42:19;8.35;;;5.25;;
76171;SDS011;64929;51.178;4.138;2023-09-07T02:44:45;8.27;;;5.10;;
76171;SDS011;64929;51.178;4.138;2023-09-07T02:47:12;7.30;;;5.55;;
76171;SDS011;64929;51.178;4.138;2023-09-07T02:49:38;7.97;;;5.03;;
76171;SDS011;64929;51.178;4.138;2023-09-07T02:52:04;8.73;;;5.40;;
76171;SDS011;64929;51.178;4.138;2023-09-07T02:54:30;9.80;;;5.30;;
76171;SDS011;64929;51.178;4.138;2023-09-07T02:56:57;6.55;;;4.95;;
76171;SDS011;64929;51.178;4.138;2023-09-07T02:59:23;10.65;;;5.57;;
76171;SDS011;64929;51.178;4.138;2023-09-07T03:01:49;9.25;;;5.53;;
76171;SDS011;64929;51.178;4.138;2023-09-07T03:04:14;6.95;;;4.90;;
76171;SDS011;64929;51.178;4.138;2023-09-07T03:06:40;9.43;;;4.78;;
76171;SDS011;64929;51.178;4.138;2023-09-07T03:09:06;6.75;;;4.90;;
76171;SDS011;64929;51.178;4.138;2023-09-07T03:11:34;8.38;;;5.85;;
76171;SDS011;64929;51.178;4.138;2023-09-07T03:14:00;9.95;;;5.57;;
76171;SDS011;64929;51.178;4.138;2023-09-07T03:16:26;9.68;;;5.60;;
76171;SDS011;64929;51.178;4.138;2023-09-07T03:18:52;8.25;;;5.43;;
76171;SDS011;64929;51.178;4.138;2023-09-07T03:21:18;8.73;;;6.07;;
76171;SDS011;64929;51.178;4.138;2023-09-07T03:23:45;10.25;;;5.55;;
76171;SDS011;64929;51.178;4.138;2023-09-07T03:26:11;9.48;;;5.82;;
76171;SDS011;64929;51.178;4.138;2023-09-07T03:28:36;8.88;;;5.45;;
76171;SDS011;64929;51.178;4.138;2023-09-07T03:31:02;8.68;;;6.03;;
76171;SDS011;64929;51.178;4.138;2023-09-07T03:33:28;13.98;;;6.00;;
76171;SDS011;64929;51.178;4.138;2023-09-07T03:35:54;9.48;;;5.88;;
76171;SDS011;64929;51.178;4.138;2023-09-07T03:38:23;7.47;;;5.60;;
76171;SDS011;64929;51.178;4.138;2023-09-07T03:40:49;6.85;;;5.65;;
76171;SDS011;64929;51.178;4.138;2023-09-07T03:43:15;6.18;;;5.40;;
76171;SDS011;64929;51.178;4.138;2023-09-07T03:45:41;8.63;;;6.15;;
76171;SDS011;64929;51.178;4.138;2023-09-07T03:48:07;14.02;;;5.85;;
76171;SDS011;64929;51.178;4.138;2023-09-07T03:50:34;8.77;;;6.40;;
76171;SDS011;64929;51.178;4.138;2023-09-07T03:53:00;10.30;;;5.60;;
76171;SDS011;64929;51.178;4.138;2023-09-07T03:55:26;7.82;;;5.55;;
76171;SDS011;64929;51.178;4.138;2023-09-07T03:57:52;9.63;;;6.00;;
76171;SDS011;64929;51.178;4.138;2023-09-07T04:00:18;8.68;;;6.50;;
76171;SDS011;64929;51.178;4.138;2023-09-07T04:02:44;7.68;;;5.40;;
76171;SDS011;64929;51.178;4.138;2023-09-07T04:05:11;6.30;;;5.25;;
76171;SDS011;64929;51.178;4.138;2023-09-07T04:07:37;7.47;;;5.97;;
76171;SDS011;64929;51.178;4.138;2023-09-07T04:10:04;9.82;;;5.82;;
76171;SDS011;64929;51.178;4.138;2023-09-07T04:12:31;12.23;;;6.47;;
76171;SDS011;64929;51.178;4.138;2023-09-07T04:15:09;6.72;;;5.68;;
76171;SDS011;64929;51.178;4.138;2023-09-07T04:17:35;9.57;;;6.60;;
76171;SDS011;64929;51.178;4.138;2023-09-07T04:22:34;7.55;;;5.90;;
76171;SDS011;64929;51.178;4.138;2023-09-07T04:25:00;9.95;;;5.90;;
76171;SDS011;64929;51.178;4.138;2023-09-07T04:27:26;9.75;;;5.80;;
76171;SDS011;64929;51.178;4.138;2023-09-07T04:29:52;11.65;;;6.30;;
76171;SDS011;64929;51.178;4.138;2023-09-07T04:32:18;8.13;;;5.60;;
76171;SDS011;64929;51.178;4.138;2023-09-07T04:34:45;7.32;;;4.95;;
76171;SDS011;64929;51.178;4.138;2023-09-07T04:37:11;9.27;;;5.70;;
76171;SDS011;64929;51.178;4.138;2023-09-07T04:39:37;7.13;;;5.47;;
76171;SDS011;64929;51.178;4.138;2023-09-07T04:42:03;11.65;;;6.45;;
76171;SDS011;64929;51.178;4.138;2023-09-07T04:44:29;6.70;;;5.05;;
76171;SDS011;64929;51.178;4.138;2023-09-07T04:46:55;8.57;;;6.05;;
76171;SDS011;64929;51.178;4.138;2023-09-07T04:49:21;8.25;;;5.60;;
76171;SDS011;64929;51.178;4.138;2023-09-07T04:51:48;10.38;;;5.75;;
76171;SDS011;64929;51.178;4.138;2023-09-07T04:54:14;8.68;;;5.70;;
76171;SDS011;64929;51.178;4.138;2023-09-07T04:56:41;8.48;;;5.75;;
76171;SDS011;64929;51.178;4.138;2023-09-07T04:59:07;7.40;;;5.47;;
76171;SDS011;64929;51.178;4.138;2023-09-07T05:01:33;7.53;;;4.93;;
76171;SDS011;64929;51.178;4.138;2023-09-07T05:03:59;7.45;;;5.30;;
76171;SDS011;64929;51.178;4.138;2023-09-07T05:06:26;7.07;;;5.30;;
76171;SDS011;64929;51.178;4.138;2023-09-07T05:08:52;8.30;;;5.50;;
76171;SDS011;64929;51.178;4.138;2023-09-07T05:11:18;10.20;;;5.75;;
76171;SDS011;64929;51.178;4.138;2023-09-07T05:13:44;7.30;;;5.60;;
76171;SDS011;64929;51.178;4.138;2023-09-07T05:16:09;7.90;;;5.80;;
76171;SDS011;64929;51.178;4.138;2023-09-07T05:18:35;10.05;;;5.90;;
76171;SDS011;64929;51.178;4.138;2023-09-07T05:21:10;7.75;;;5.75;;
76171;SDS011;64929;51.178;4.138;2023-09-07T05:23:39;8.80;;;6.03;;
76171;SDS011;64929;51.178;4.138;2023-09-07T05:26:05;9.30;;;5.88;;
76171;SDS011;64929;51.178;4.138;2023-09-07T05:28:39;8.13;;;6.20;;
76171;SDS011;64929;51.178;4.138;2023-09-07T05:31:06;11.30;;;6.50;;
76171;SDS011;64929;51.178;4.138;2023-09-07T05:33:32;7.93;;;6.05;;
76171;SDS011;64929;51.178;4.138;2023-09-07T05:35:59;12.00;;;6.50;;
76171;SDS011;64929;51.178;4.138;2023-09-07T05:38:26;11.90;;;7.05;;
76171;SDS011;64929;51.178;4.138;2023-09-07T05:40:53;8.30;;;6.18;;
76171;SDS011;64929;51.178;4.138;2023-09-07T05:43:19;11.02;;;6.38;;
76171;SDS011;64929;51.178;4.138;2023-09-07T05:45:45;10.40;;;6.03;;
76171;SDS011;64929;51.178;4.138;2023-09-07T05:48:12;10.98;;;6.13;;
76171;SDS011;64929;51.178;4.138;2023-09-07T05:50:38;10.45;;;6.65;;
76171;SDS011;64929;51.178;4.138;2023-09-07T05:53:05;12.73;;;6.53;;
76171;SDS011;64929;51.178;4.138;2023-09-07T05:55:31;9.68;;;6.60;;
76171;SDS011;64929;51.178;4.138;2023-09-07T05:57:57;9.73;;;6.13;;
76171;SDS011;64929;51.178;4.138;2023-09-07T06:00:23;9.35;;;6.30;;
76171;SDS011;64929;51.178;4.138;2023-09-07T06:02:50;9.27;;;6.68;;
76171;SDS011;64929;51.178;4.138;2023-09-07T06:05:16;10.40;;;6.68;;
76171;SDS011;64929;51.178;4.138;2023-09-07T06:07:42;13.88;;;7.32;;
76171;SDS011;64929;51.178;4.138;2023-09-07T06:10:09;9.95;;;6.30;;
76171;SDS011;64929;51.178;4.138;2023-09-07T06:12:35;10.60;;;6.72;;
76171;SDS011;64929;51.178;4.138;2023-09-07T06:15:01;8.68;;;6.53;;
76171;SDS011;64929;51.178;4.138;2023-09-07T06:17:28;11.15;;;6.95;;
76171;SDS011;64929;51.178;4.138;2023-09-07T06:19:54;9.18;;;7.35;;
76171;SDS011;64929;51.178;4.138;2023-09-07T06:22:21;11.57;;;7.25;;
76171;SDS011;64929;51.178;4.138;2023-09-07T06:24:47;11.68;;;7.90;;
76171;SDS011;64929;51.178;4.138;2023-09-07T06:27:13;10.00;;;7.28;;
76171;SDS011;64929;51.178;4.138;2023-09-07T06:29:39;12.73;;;7.25;;
76171;SDS011;64929;51.178;4.138;2023-09-07T06:32:04;11.63;;;7.30;;
76171;SDS011;64929;51.178;4.138;2023-09-07T06:34:30;11.98;;;7.50;;
76171;SDS011;64929;51.178;4.138;2023-09-07T06:36:56;12.05;;;7.55;;
76171;SDS011;64929;51.178;4.138;2023-09-07T06:39:22;10.57;;;7.45;;
76171;SDS011;64929;51.178;4.138;2023-09-07T06:41:49;12.02;;;7.50;;
76171;SDS011;64929;51.178;4.138;2023-09-07T06:44:14;11.15;;;7.22;;
76171;SDS011;64929;51.178;4.138;2023-09-07T06:46:40;10.10;;;7.15;;
76171;SDS011;64929;51.178;4.138;2023-09-07T06:49:06;9.75;;;7.53;;
76171;SDS011;64929;51.178;4.138;2023-09-07T06:51:33;11.77;;;7.68;;
76171;SDS011;64929;51.178;4.138;2023-09-07T06:53:58;11.23;;;7.55;;
76171;SDS011;64929;51.178;4.138;2023-09-07T06:56:24;10.98;;;7.10;;
76171;SDS011;64929;51.178;4.138;2023-09-07T06:58:51;13.18;;;7.72;;
76171;SDS011;64929;51.178;4.138;2023-09-07T07:01:17;12.88;;;7.35;;
76171;SDS011;64929;51.178;4.138;2023-09-07T07:03:43;9.65;;;7.10;;
76171;SDS011;64929;51.178;4.138;2023-09-07T07:06:09;13.52;;;7.75;;
76171;SDS011;64929;51.178;4.138;2023-09-07T07:08:36;9.40;;;7.35;;
76171;SDS011;64929;51.178;4.138;2023-09-07T07:11:01;11.05;;;7.97;;
76171;SDS011;64929;51.178;4.138;2023-09-07T07:13:27;11.02;;;7.70;;
76171;SDS011;64929;51.178;4.138;2023-09-07T07:15:53;12.88;;;7.70;;
76171;SDS011;64929;51.178;4.138;2023-09-07T07:18:19;9.55;;;7.10;;
76171;SDS011;64929;51.178;4.138;2023-09-07T07:20:45;8.63;;;6.90;;
76171;SDS011;64929;51.178;4.138;2023-09-07T07:23:11;11.13;;;6.97;;
76171;SDS011;64929;51.178;4.138;2023-09-07T07:25:57;8.77;;;6.93;;
76171;SDS011;64929;51.178;4.138;2023-09-07T07:28:23;13.10;;;7.07;;
76171;SDS011;64929;51.178;4.138;2023-09-07T07:30:49;10.10;;;6.82;;
76171;SDS011;64929;51.178;4.138;2023-09-07T07:33:17;8.82;;;6.47;;
76171;SDS011;64929;51.178;4.138;2023-09-07T07:35:43;11.10;;;6.47;;
76171;SDS011;64929;51.178;4.138;2023-09-07T07:38:09;8.90;;;6.00;;
76171;SDS011;64929;51.178;4.138;2023-09-07T07:40:38;8.63;;;6.23;;
76171;SDS011;64929;51.178;4.138;2023-09-07T07:43:04;7.65;;;5.82;;
76171;SDS011;64929;51.178;4.138;2023-09-07T07:45:31;8.68;;;6.40;;
76171;SDS011;64929;51.178;4.138;2023-09-07T07:48:01;8.57;;;6.18;;
76171;SDS011;64929;51.178;4.138;2023-09-07T07:50:27;8.02;;;5.50;;
76171;SDS011;64929;51.178;4.138;2023-09-07T07:52:53;7.00;;;5.55;;
76171;SDS011;64929;51.178;4.138;2023-09-07T07:55:18;7.57;;;5.63;;
76171;SDS011;64929;51.178;4.138;2023-09-07T07:57:44;6.82;;;5.50;;
76171;SDS011;64929;51.178;4.138;2023-09-07T08:00:10;8.18;;;5.00;;
76171;SDS011;64929;51.178;4.138;2023-09-07T08:02:39;6.75;;;5.03;;
76171;SDS011;64929;51.178;4.138;2023-09-07T08:05:05;9.50;;;4.68;;
76171;SDS011;64929;51.178;4.138;2023-09-07T08:07:31;7.13;;;4.60;;
76171;SDS011;64929;51.178;4.138;2023-09-07T08:09:56;7.30;;;3.85;;
76171;SDS011;64929;51.178;4.138;2023-09-07T08:12:22;6.03;;;4.45;;
76171;SDS011;64929;51.178;4.138;2023-09-07T08:14:48;6.93;;;4.85;;
76171;SDS011;64929;51.178;4.138;2023-09-07T08:17:14;6.55;;;4.38;;
76171;SDS011;64929;51.178;4.138;2023-09-07T08:19:40;6.22;;;4.20;;
76171;SDS011;64929;51.178;4.138;2023-09-07T08:22:06;6.53;;;4.20;;
76171;SDS011;64929;51.178;4.138;2023-09-07T08:24:33;5.95;;;4.07;;
76171;SDS011;64929;51.178;4.138;2023-09-07T08:26:59;6.63;;;3.92;;
76171;SDS011;64929;51.178;4.138;2023-09-07T08:29:25;8.43;;;4.47;;
76171;SDS011;64929;51.178;4.138;2023-09-07T08:31:52;6.97;;;3.80;;
76171;SDS011;64929;51.178;4.138;2023-09-07T08:34:18;4.43;;;3.85;;
76171;SDS011;64929;51.178;4.138;2023-09-07T08:36:50;5.82;;;4.15;;
76171;SDS011;64929;51.178;4.138;2023-09-07T08:39:18;6.10;;;3.70;;
76171;SDS011;64929;51.178;4.138;2023-09-07T08:41:45;7.43;;;3.85;;
76171;SDS011;64929;51.178;4.138;2023-09-07T08:44:21;5.47;;;3.97;;
76171;SDS011;64929;51.178;4.138;2023-09-07T08:46:49;6.28;;;3.70;;
76171;SDS011;64929;51.178;4.138;2023-09-07T08:49:17;5.05;;;3.83;;
76171;SDS011;64929;51.178;4.138;2023-09-07T08:51:46;4.22;;;3.45;;
76171;SDS011;64929;51.178;4.138;2023-09-07T08:54:12;6.55;;;3.60;;
76171;SDS011;64929;51.178;4.138;2023-09-07T08:56:38;6.05;;;3.58;;
76171;SDS011;64929;51.178;4.138;2023-09-07T08:59:04;7.25;;;3.85;;
76171;SDS011;64929;51.178;4.138;2023-09-07T09:01:37;4.75;;;3.35;;
76171;SDS011;64929;51.178;4.138;2023-09-07T09:04:05;7.93;;;3.13;;
76171;SDS011;64929;51.178;4.138;2023-09-07T09:06:31;5.70;;;2.88;;
76171;SDS011;64929;51.178;4.138;2023-09-07T09:08:57;5.32;;;3.17;;
76171;SDS011;64929;51.178;4.138;2023-09-07T09:11:23;5.28;;;3.45;;
76171;SDS011;64929;51.178;4.138;2023-09-07T09:13:51;4.15;;;3.40;;
76171;SDS011;64929;51.178;4.138;2023-09-07T09:16:19;5.75;;;3.30;;
76171;SDS011;64929;51.178;4.138;2023-09-07T09:18:49;3.75;;;3.08;;
76171;SDS011;64929;51.178;4.138;2023-09-07T09:21:17;4.90;;;3.25;;
76171;SDS011;64929;51.178;4.138;2023-09-07T09:23:47;8.52;;;3.45;;
76171;SDS011;64929;51.178;4.138;2023-09-07T09:26:34;5.20;;;3.03;;
76171;SDS011;64929;51.178;4.138;2023-09-07T09:29:02;5.03;;;3.30;;
76171;SDS011;64929;51.178;4.138;2023-09-07T09:31:29;6.20;;;3.40;;
76171;SDS011;64929;51.178;4.138;2023-09-07T09:33:55;6.72;;;3.00;;
76171;SDS011;64929;51.178;4.138;2023-09-07T09:36:21;4.85;;;3.13;;
76171;SDS011;64929;51.178;4.138;2023-09-07T09:38:51;5.60;;;3.58;;
76171;SDS011;64929;51.178;4.138;2023-09-07T09:41:19;4.80;;;3.53;;
76171;SDS011;64929;51.178;4.138;2023-09-07T09:43:46;5.10;;;3.05;;
76171;SDS011;64929;51.178;4.138;2023-09-07T09:46:16;3.08;;;2.45;;
76171;SDS011;64929;51.178;4.138;2023-09-07T09:48:42;6.90;;;3.17;;
76171;SDS011;64929;51.178;4.138;2023-09-07T09:51:09;5.50;;;3.20;;
76171;SDS011;64929;51.178;4.138;2023-09-07T09:53:36;6.25;;;3.20;;
76171;SDS011;64929;51.178;4.138;2023-09-07T09:56:02;5.10;;;2.83;;
76171;SDS011;64929;51.178;4.138;2023-09-07T09:58:28;5.40;;;2.85;;
76171;SDS011;64929;51.178;4.138;2023-09-07T10:00:54;4.45;;;3.03;;
76171;SDS011;64929;51.178;4.138;2023-09-07T10:06:06;4.90;;;3.10;;
76171;SDS011;64929;51.178;4.138;2023-09-07T10:08:54;4.78;;;2.92;;
76171;SDS011;64929;51.178;4.138;2023-09-07T10:11:43;9.75;;;2.95;;
76171;SDS011;64929;51.178;4.138;2023-09-07T10:14:16;4.28;;;2.88;;
76171;SDS011;64929;51.178;4.138;2023-09-07T10:19:17;6.80;;;3.40;;
76171;SDS011;64929;51.178;4.138;2023-09-07T10:21:44;6.78;;;2.85;;
76171;SDS011;64929;51.178;4.138;2023-09-07T10:24:10;6.28;;;2.85;;
76171;SDS011;64929;51.178;4.138;2023-09-07T10:26:36;4.18;;;2.70;;
76171;SDS011;64929;51.178;4.138;2023-09-07T10:29:02;4.07;;;2.58;;
76171;SDS011;64929;51.178;4.138;2023-09-07T10:31:30;3.15;;;2.45;;
76171;SDS011;64929;51.178;4.138;2023-09-07T10:34:07;7.35;;;2.95;;
76171;SDS011;64929;51.178;4.138;2023-09-07T10:36:35;4.82;;;3.03;;
76171;SDS011;64929;51.178;4.138;2023-09-07T10:39:02;8.45;;;2.90;;
76171;SDS011;64929;51.178;4.138;2023-09-07T10:41:39;3.60;;;2.45;;
76171;SDS011;64929;51.178;4.138;2023-09-07T10:44:06;3.40;;;2.53;;
76171;SDS011;64929;51.178;4.138;2023-09-07T10:46:32;6.88;;;2.80;;
76171;SDS011;64929;51.178;4.138;2023-09-07T10:48:57;5.65;;;2.92;;
76171;SDS011;64929;51.178;4.138;2023-09-07T10:51:24;6.55;;;3.33;;
76171;SDS011;64929;51.178;4.138;2023-09-07T10:53:49;4.68;;;2.70;;
76171;SDS011;64929;51.178;4.138;2023-09-07T10:56:15;6.22;;;2.70;;
76171;SDS011;64929;51.178;4.138;2023-09-07T10:58:41;5.72;;;2.80;;
76171;SDS011;64929;51.178;4.138;2023-09-07T11:01:09;5.93;;;2.70;;
76171;SDS011;64929;51.178;4.138;2023-09-07T11:03:36;3.70;;;2.70;;
76171;SDS011;64929;51.178;4.138;2023-09-07T11:06:04;4.38;;;2.45;;
76171;SDS011;64929;51.178;4.138;2023-09-07T11:08:35;3.00;;;2.33;;
76171;SDS011;64929;51.178;4.138;2023-09-07T11:11:02;4.50;;;2.38;;
76171;SDS011;64929;51.178;4.138;2023-09-07T11:13:28;4.03;;;2.60;;
76171;SDS011;64929;51.178;4.138;2023-09-07T11:15:55;3.28;;;2.55;;
76171;SDS011;64929;51.178;4.138;2023-09-07T11:18:22;4.93;;;2.45;;
76171;SDS011;64929;51.178;4.138;2023-09-07T11:20:50;3.88;;;2.45;;
76171;SDS011;64929;51.178;4.138;2023-09-07T11:23:17;3.00;;;2.70;;
76171;SDS011;64929;51.178;4.138;2023-09-07T11:25:43;3.30;;;2.60;;
76171;SDS011;64929;51.178;4.138;2023-09-07T11:28:11;3.90;;;2.83;;
76171;SDS011;64929;51.178;4.138;2023-09-07T11:30:37;3.03;;;2.50;;
76171;SDS011;64929;51.178;4.138;2023-09-07T11:33:15;9.88;;;2.80;;
76171;SDS011;64929;51.178;4.138;2023-09-07T11:35:41;3.05;;;2.50;;
76171;SDS011;64929;51.178;4.138;2023-09-07T11:38:08;3.70;;;2.30;;
76171;SDS011;64929;51.178;4.138;2023-09-07T11:43:03;4.15;;;2.10;;
76171;SDS011;64929;51.178;4.138;2023-09-07T11:45:29;3.15;;;2.78;;
76171;SDS011;64929;51.178;4.138;2023-09-07T11:47:55;3.38;;;2.45;;
76171;SDS011;64929;51.178;4.138;2023-09-07T11:50:22;3.55;;;2.28;;
76171;SDS011;64929;51.178;4.138;2023-09-07T11:52:49;2.88;;;2.08;;
76171;SDS011;64929;51.178;4.138;2023-09-07T11:55:18;2.42;;;2.20;;
76171;SDS011;64929;51.178;4.138;2023-09-07T11:57:51;2.67;;;2.35;;
76171;SDS011;64929;51.178;4.138;2023-09-07T12:00:17;3.42;;;2.22;;
76171;SDS011;64929;51.178;4.138;2023-09-07T12:02:43;2.42;;;2.22;;
76171;SDS011;64929;51.178;4.138;2023-09-07T12:05:08;4.38;;;2.22;;
76171;SDS011;64929;51.178;4.138;2023-09-07T12:07:35;2.40;;;2.20;;
76171;SDS011;64929;51.178;4.138;2023-09-07T12:10:01;2.40;;;2.20;;
76171;SDS011;64929;51.178;4.138;2023-09-07T12:12:28;3.25;;;2.58;;
76171;SDS011;64929;51.178;4.138;2023-09-07T12:14:53;2.45;;;2.25;;
76171;SDS011;64929;51.178;4.138;2023-09-07T12:17:21;3.38;;;1.90;;
76171;SDS011;64929;51.178;4.138;2023-09-07T12:19:49;1.90;;;1.80;;
76171;SDS011;64929;51.178;4.138;2023-09-07T12:22:15;2.75;;;2.47;;
76171;SDS011;64929;51.178;4.138;2023-09-07T12:24:41;5.28;;;2.30;;
76171;SDS011;64929;51.178;4.138;2023-09-07T12:27:07;5.50;;;2.20;;
76171;SDS011;64929;51.178;4.138;2023-09-07T12:29:33;4.00;;;2.17;;
76171;SDS011;64929;51.178;4.138;2023-09-07T12:31:59;3.55;;;2.30;;
76171;SDS011;64929;51.178;4.138;2023-09-07T12:34:25;2.50;;;1.90;;
76171;SDS011;64929;51.178;4.138;2023-09-07T12:36:51;2.50;;;2.30;;
76171;SDS011;64929;51.178;4.138;2023-09-07T12:39:17;3.63;;;2.30;;
76171;SDS011;64929;51.178;4.138;2023-09-07T12:41:43;2.05;;;1.85;;
76171;SDS011;64929;51.178;4.138;2023-09-07T12:44:09;3.03;;;1.92;;
76171;SDS011;64929;51.178;4.138;2023-09-07T12:46:35;4.32;;;2.20;;
76171;SDS011;64929;51.178;4.138;2023-09-07T12:49:02;3.28;;;2.30;;
76171;SDS011;64929;51.178;4.138;2023-09-07T12:51:28;2.47;;;2.20;;
76171;SDS011;64929;51.178;4.138;2023-09-07T12:53:54;5.20;;;2.13;;
76171;SDS011;64929;51.178;4.138;2023-09-07T12:56:21;2.03;;;1.80;;
76171;SDS011;64929;51.178;4.138;2023-09-07T12:58:47;6.07;;;2.30;;
76171;SDS011;64929;51.178;4.138;2023-09-07T13:01:13;2.88;;;2.17;;
76171;SDS011;64929;51.178;4.138;2023-09-07T13:03:40;3.00;;;2.20;;
76171;SDS011;64929;51.178;4.138;2023-09-07T13:06:06;2.58;;;2.03;;
76171;SDS011;64929;51.178;4.138;2023-09-07T13:08:32;3.30;;;2.35;;
76171;SDS011;64929;51.178;4.138;2023-09-07T13:10:59;3.67;;;2.00;;
76171;SDS011;64929;51.178;4.138;2023-09-07T13:13:25;6.13;;;2.20;;
76171;SDS011;64929;51.178;4.138;2023-09-07T13:15:53;3.33;;;2.40;;
76171;SDS011;64929;51.178;4.138;2023-09-07T13:18:22;4.07;;;2.50;;
76171;SDS011;64929;51.178;4.138;2023-09-07T13:20:48;3.30;;;2.38;;
76171;SDS011;64929;51.178;4.138;2023-09-07T13:23:19;2.35;;;2.08;;
76171;SDS011;64929;51.178;4.138;2023-09-07T13:25:45;4.40;;;2.03;;
76171;SDS011;64929;51.178;4.138;2023-09-07T13:28:11;3.13;;;2.20;;
76171;SDS011;64929;51.178;4.138;2023-09-07T13:30:37;3.80;;;2.40;;
76171;SDS011;64929;51.178;4.138;2023-09-07T13:33:03;3.47;;;2.20;;
76171;SDS011;64929;51.178;4.138;2023-09-07T13:35:29;4.45;;;2.67;;
76171;SDS011;64929;51.178;4.138;2023-09-07T13:37:55;2.45;;;2.00;;
76171;SDS011;64929;51.178;4.138;2023-09-07T13:40:21;2.90;;;1.92;;
76171;SDS011;64929;51.178;4.138;2023-09-07T13:42:49;4.22;;;2.20;;
76171;SDS011;64929;51.178;4.138;2023-09-07T13:45:15;2.58;;;2.38;;
76171;SDS011;64929;51.178;4.138;2023-09-07T13:47:40;2.30;;;2.10;;
76171;SDS011;64929;51.178;4.138;2023-09-07T13:50:06;3.97;;;2.30;;
76171;SDS011;64929;51.178;4.138;2023-09-07T13:52:32;3.35;;;1.80;;
76171;SDS011;64929;51.178;4.138;2023-09-07T13:54:58;4.40;;;2.45;;
76171;SDS011;64929;51.178;4.138;2023-09-07T13:57:23;2.13;;;1.90;;
76171;SDS011;64929;51.178;4.138;2023-09-07T13:59:49;3.97;;;2.03;;
76171;SDS011;64929;51.178;4.138;2023-09-07T14:02:15;2.85;;;2.00;;
76171;SDS011;64929;51.178;4.138;2023-09-07T14:04:40;3.13;;;2.10;;
76171;SDS011;64929;51.178;4.138;2023-09-07T14:07:06;9.25;;;2.40;;
76171;SDS011;64929;51.178;4.138;2023-09-07T14:09:36;5.10;;;2.45;;
76171;SDS011;64929;51.178;4.138;2023-09-07T14:12:02;2.15;;;1.95;;
76171;SDS011;64929;51.178;4.138;2023-09-07T14:14:29;2.83;;;2.38;;
76171;SDS011;64929;51.178;4.138;2023-09-07T14:16:55;3.80;;;2.55;;
76171;SDS011;64929;51.178;4.138;2023-09-07T14:19:23;3.10;;;2.50;;
76171;SDS011;64929;51.178;4.138;2023-09-07T14:21:48;2.47;;;2.20;;
76171;SDS011;64929;51.178;4.138;2023-09-07T14:24:14;4.72;;;2.70;;
76171;SDS011;64929;51.178;4.138;2023-09-07T14:26:40;3.15;;;2.55;;
76171;SDS011;64929;51.178;4.138;2023-09-07T14:29:05;2.00;;;1.80;;
76171;SDS011;64929;51.178;4.138;2023-09-07T14:31:34;4.70;;;2.50;;
76171;SDS011;64929;51.178;4.138;2023-09-07T14:34:00;4.65;;;2.25;;
76171;SDS011;64929;51.178;4.138;2023-09-07T14:36:25;2.28;;;1.67;;
76171;SDS011;64929;51.178;4.138;2023-09-07T14:38:51;1.85;;;1.75;;
76171;SDS011;64929;51.178;4.138;2023-09-07T14:41:17;2.20;;;1.83;;
76171;SDS011;64929;51.178;4.138;2023-09-07T14:43:47;4.40;;;2.03;;
76171;SDS011;64929;51.178;4.138;2023-09-07T14:46:13;2.30;;;2.10;;
76171;SDS011;64929;51.178;4.138;2023-09-07T14:48:39;3.63;;;1.90;;
76171;SDS011;64929;51.178;4.138;2023-09-07T14:51:05;4.30;;;2.15;;
76171;SDS011;64929;51.178;4.138;2023-09-07T14:53:31;2.50;;;1.75;;
76171;SDS011;64929;51.178;4.138;2023-09-07T14:55:56;2.70;;;2.15;;